createdAt,value
2022-08-11T00:04:35.047Z,59.5
2022-08-11T00:10:09.873Z,59.2
2022-08-11T00:15:44.630Z,59.4
2022-08-11T00:22:06.227Z,58.6
2022-08-11T00:27:41.836Z,59.3
2022-08-11T00:33:16.841Z,60.7
2022-08-11T00:38:51.681Z,59.4
2022-08-11T00:44:26.523Z,59.1
2022-08-11T00:50:01.458Z,58.7
2022-08-11T00:55:37.205Z,58.1
2022-08-11T01:01:14.546Z,57.9
2022-08-11T01:06:49.889Z,58.9
2022-08-11T01:12:24.663Z,59.2
2022-08-11T01:18:21.266Z,58.6
2022-08-11T01:24:01.561Z,58
2022-08-11T01:29:36.361Z,57.8
2022-08-11T01:35:11.266Z,58.4
2022-08-11T01:40:46.097Z,61.3
2022-08-11T01:46:21.876Z,62.2
2022-08-11T01:51:57.693Z,62.3
2022-08-11T01:57:32.553Z,63.1
2022-08-11T02:03:07.384Z,62.9
2022-08-11T02:08:50.558Z,63.1
2022-08-11T02:14:28.342Z,62.6
2022-08-11T02:20:04.197Z,63
2022-08-11T02:25:39.079Z,63.3
2022-08-11T02:32:30.066Z,63.7
2022-08-11T02:38:11.597Z,62.9
2022-08-11T02:43:51.368Z,61.9
2022-08-11T02:49:26.664Z,61.8
2022-08-11T02:55:02.362Z,61.2
2022-08-11T03:00:37.238Z,60.7
2022-08-11T03:06:12.202Z,61.7
2022-08-11T03:11:46.998Z,62.5
2022-08-11T03:17:43.672Z,61.3
2022-08-11T03:23:20.661Z,60.2
2022-08-11T03:28:55.581Z,59.5
2022-08-11T03:34:31.851Z,60.9
2022-08-11T03:40:06.928Z,62.2
2022-08-11T03:45:43.435Z,62.5
2022-08-11T03:51:18.101Z,62.6
2022-08-11T03:56:52.880Z,62.8
2022-08-11T04:02:28.444Z,63.9
2022-08-11T04:08:04.629Z,64.3
2022-08-11T04:13:39.538Z,64
2022-08-11T04:19:36.133Z,64.5
2022-08-11T04:25:09.666Z,64.9
2022-08-11T04:30:44.638Z,64.3
2022-08-11T04:36:20.942Z,64.1
2022-08-11T04:41:55.827Z,63.6
2022-08-11T04:48:04.518Z,65.2
2022-08-11T04:53:42.877Z,67.2
2022-08-11T04:59:17.445Z,68
2022-08-11T05:04:52.293Z,70
2022-08-11T05:10:27.102Z,68.8
2022-08-11T05:16:02.093Z,69.7
2022-08-11T05:21:45.505Z,66.3
2022-08-11T05:27:31.952Z,68.5
2022-08-11T05:33:07.688Z,66.8
2022-08-11T05:38:42.704Z,67.1
2022-08-11T05:44:22.569Z,67.3
2022-08-11T05:49:58.920Z,66.6
2022-08-11T05:56:02.657Z,67.7
2022-08-11T06:01:39.197Z,66.8
2022-08-11T06:07:15.664Z,66.6
2022-08-11T06:12:52.219Z,65.6
2022-08-11T06:18:28.510Z,68
2022-08-11T06:24:03.406Z,67.5
2022-08-11T06:29:54.653Z,68.9
2022-08-11T06:35:31.003Z,66.1
2022-08-11T06:41:05.894Z,66.3
2022-08-11T06:46:40.638Z,64.6
2022-08-11T06:52:36.578Z,66.1
2022-08-11T06:58:13.437Z,62.5
2022-08-11T07:03:48.401Z,65.6
2022-08-11T07:09:25.308Z,65
2022-08-11T07:15:01.700Z,64.7
2022-08-11T07:20:36.501Z,67.6
2022-08-11T07:26:11.304Z,67.4
2022-08-11T07:31:47.388Z,65.6
2022-08-11T07:37:22.212Z,65.1
2022-08-11T07:42:57.215Z,65.1
2022-08-11T07:48:33.169Z,64.2
2022-08-11T07:54:17.544Z,63.2
2022-08-11T08:00:05.208Z,62.6
2022-08-11T08:05:47.795Z,61
2022-08-11T08:11:27.801Z,63.2
2022-08-11T08:17:24.467Z,62
2022-08-11T08:22:57.142Z,62.2
2022-08-11T08:28:32.996Z,62.8
2022-08-11T08:34:07.971Z,60.8
2022-08-11T08:39:43.136Z,62.4
2022-08-11T08:45:19.196Z,62.2
2022-08-11T08:50:54.718Z,61
2022-08-11T08:56:32.144Z,60
2022-08-11T09:02:06.929Z,62.6
2022-08-11T09:07:42.577Z,59.9
2022-08-11T09:13:19.720Z,59.7
2022-08-11T09:18:55.540Z,58.9
2022-08-11T09:24:33.406Z,59.7
2022-08-11T09:30:10.158Z,54.9
2022-08-11T09:35:45.587Z,53.9
2022-08-11T09:41:26.011Z,52.4
2022-08-11T09:47:40.803Z,52.3
2022-08-11T09:53:41.126Z,50.9
2022-08-11T09:59:39.497Z,53.7
2022-08-11T10:05:14.046Z,56.2
2022-08-11T10:10:48.995Z,57.1
2022-08-11T10:16:23.867Z,57.7
2022-08-11T10:21:58.861Z,57
2022-08-11T10:28:44.591Z,56.6
2022-08-11T10:34:58.156Z,56.1
2022-08-11T10:40:32.773Z,55.6
2022-08-11T10:46:07.535Z,55.5
2022-08-11T10:51:53.849Z,54.7
2022-08-11T10:57:34.143Z,54.1
2022-08-11T11:03:24.117Z,54.2
2022-08-11T11:09:05.077Z,53.9
2022-08-11T11:14:52.674Z,53.9
2022-08-11T11:20:40.719Z,53.9
2022-08-11T11:26:28.112Z,54.7
2022-08-11T11:32:03.013Z,54.1
2022-08-11T11:37:37.930Z,54.2
2022-08-11T11:43:13.810Z,53.9
2022-08-11T11:48:48.899Z,53.6
2022-08-11T11:54:23.781Z,53.7
2022-08-11T11:59:58.939Z,53
2022-08-11T12:05:33.799Z,52.7
2022-08-11T12:11:09.035Z,51.4
2022-08-11T12:17:06.218Z,50.8
2022-08-11T12:22:42.755Z,50.8
2022-08-11T12:28:17.777Z,49.5
2022-08-11T12:33:54.119Z,49
2022-08-11T12:41:11.454Z,48.2
2022-08-11T12:46:55.635Z,47.3
2022-08-11T12:52:30.476Z,48.5
2022-08-11T12:58:07.707Z,47.9
2022-08-11T13:03:43.128Z,46.8
2022-08-11T13:09:31.339Z,45.7
2022-08-11T13:15:06.364Z,46
2022-08-11T13:20:41.290Z,45.6
2022-08-11T13:26:24.914Z,44.6
2022-08-11T13:32:25.850Z,43
2022-08-11T13:38:20.495Z,41.9
2022-08-11T13:44:02.925Z,42.5
2022-08-11T13:49:40.512Z,42.4
2022-08-11T13:55:52.723Z,41.1
2022-08-11T14:02:29.776Z,40.7
2022-08-11T14:08:07.257Z,40.7
2022-08-11T14:14:06.480Z,39.1
2022-08-11T14:19:41.437Z,40.3
2022-08-11T14:25:16.540Z,41.3
2022-08-11T14:30:51.598Z,40.9
2022-08-11T14:36:28.612Z,39.5
2022-08-11T14:42:13.328Z,38.9
2022-08-11T14:47:48.762Z,38
2022-08-11T14:53:23.724Z,38.2
2022-08-11T14:58:58.740Z,37.1
2022-08-11T15:04:37.090Z,36.7
2022-08-11T15:10:14.767Z,37
2022-08-11T15:15:53.513Z,36.3
2022-08-11T15:21:29.339Z,35.7
2022-08-11T15:27:04.400Z,36
2022-08-11T15:32:39.369Z,36.5
2022-08-11T15:38:14.427Z,36.3
2022-08-11T15:43:49.294Z,36.8
2022-08-11T15:49:24.231Z,37.6
2022-08-11T15:55:49.574Z,38
2022-08-11T16:01:24.643Z,37.8
2022-08-11T16:07:01.561Z,37.5
2022-08-11T16:12:39.428Z,38.3
2022-08-11T16:18:36.109Z,38.8
2022-08-11T16:27:06.452Z,39.1
2022-08-11T16:32:50.359Z,38.3
2022-08-11T16:38:24.963Z,38.5
2022-08-11T16:43:59.935Z,39.1
2022-08-11T16:49:35.519Z,39.7
2022-08-11T16:55:11.517Z,40.1
2022-08-11T17:01:28.443Z,40.2
2022-08-11T17:07:40.783Z,39.3
2022-08-11T17:13:19.781Z,39.4
2022-08-11T17:19:16.419Z,39.9
2022-08-11T17:24:49.201Z,40.3
2022-08-11T17:30:24.310Z,40.9
2022-08-11T17:36:00.130Z,41.3
2022-08-11T17:41:34.912Z,41.8
2022-08-11T17:47:10.577Z,41.9
2022-08-11T17:52:45.307Z,42.1
2022-08-11T17:58:20.064Z,42.3
2022-08-11T18:03:58.824Z,42.4
2022-08-11T18:09:34.086Z,42.3
2022-08-11T18:15:09.156Z,42.4
2022-08-11T18:20:46.688Z,40.4
2022-08-11T18:26:22.437Z,40.1
2022-08-11T18:31:57.184Z,41.8
2022-08-11T18:37:33.043Z,43.9
2022-08-11T18:43:07.899Z,44.2
2022-08-11T18:54:19.825Z,46.3
2022-08-11T18:59:55.539Z,49
2022-08-11T19:06:40.686Z,46.9
2022-08-11T19:12:16.350Z,48.5
2022-08-11T19:18:12.683Z,49.8
2022-08-11T19:23:45.879Z,50.2
2022-08-11T19:30:14.346Z,56.2
2022-08-11T19:35:50.858Z,59.1
2022-08-11T19:41:58.084Z,60.5
2022-08-11T19:47:32.849Z,62
2022-08-11T19:53:17.992Z,62.3
2022-08-11T19:58:52.832Z,61.7
2022-08-11T20:04:27.833Z,62.1
2022-08-11T20:10:06.864Z,61.9
2022-08-11T20:15:41.719Z,59.7
2022-08-11T20:21:32.299Z,58.7
2022-08-11T20:27:25.378Z,57.7
2022-08-11T20:33:01.573Z,57
2022-08-11T20:44:33.123Z,57.1
2022-08-11T20:50:20.305Z,57.1
2022-08-11T20:55:58.095Z,57.1
2022-08-11T21:01:42.119Z,57.1
2022-08-11T21:07:29.372Z,57
2022-08-11T21:13:29.229Z,56.9
2022-08-11T21:19:09.205Z,56.6
2022-08-11T21:24:48.477Z,56.3
2022-08-11T21:30:24.370Z,56.2
2022-08-11T21:35:59.759Z,56
2022-08-11T21:41:35.133Z,56.2
2022-08-11T21:47:10.761Z,56.7
2022-08-11T21:52:45.971Z,57.4
2022-08-11T21:58:21.696Z,58.1
2022-08-11T22:03:57.074Z,58.5
2022-08-11T22:09:32.198Z,58.8
2022-08-11T22:15:07.708Z,59
2022-08-11T22:20:42.931Z,59.2
2022-08-11T22:26:19.191Z,59.5
2022-08-11T22:31:57.263Z,59.8
2022-08-11T22:37:32.618Z,60.4
2022-08-11T22:43:07.858Z,60.8
2022-08-11T22:48:43.276Z,61.3
2022-08-11T22:54:18.719Z,61.6
2022-08-11T22:59:54.250Z,61.7
2022-08-11T23:05:29.599Z,61.5
2022-08-11T23:11:04.910Z,61.2
2022-08-11T23:16:40.550Z,60.9
2022-08-11T23:22:15.868Z,60.8
2022-08-11T23:27:52.771Z,60.8
2022-08-11T23:33:28.287Z,60.8
2022-08-11T23:39:03.596Z,60.8
2022-08-11T23:44:38.811Z,60.8
2022-08-11T23:50:36.718Z,60.7
2022-08-11T23:56:10.234Z,60.6
